Pagri, China
Current Conditions -  °F | °C
As of 7:50 AM on Saturday 29 Nov 2014 (Local Time) from VNKT Reporting Station
Haze Haze  
Wind Chill: 42°   Ceiling: Unl
Heat Index: 45°   Visibility: 2.5mi
Dew Point: 45°   Wind: 5mph
Humidity: 100%   Direction: 90°E
Pressure: 30.03"   Gusts: NA
Location:  27.73°N, 89.08°E
Report Text: VNKT 282350Z 09004KT 4000 BR FEW015 07/07 Q1017 NOSIG
Loading
Personal Weather Stations






























Interactive Weather Map New forecast layout! Learn more

10-Day Weather Forecast

Advertisements
Track Severe Weather on mobile